createdAt,value
2023-04-07T00:02:22.426Z,8.40
2023-04-07T00:07:24.868Z,8.50
2023-04-07T00:12:27.268Z,8.60
2023-04-07T00:17:30.644Z,8.50
2023-04-07T00:22:32.755Z,8.40
2023-04-07T00:27:34.925Z,8.40
2023-04-07T00:32:38.823Z,8.30
2023-04-07T00:37:41.124Z,8.10
2023-04-07T00:42:42.994Z,8.10
2023-04-07T00:47:46.720Z,8.10
2023-04-07T00:52:48.815Z,8.20
2023-04-07T00:57:50.826Z,8.30
2023-04-07T01:03:01.713Z,8.40
2023-04-07T01:08:14.223Z,8.40
2023-04-07T01:13:25.222Z,8.30
2023-04-07T01:18:33.790Z,8.30
2023-04-07T01:23:51.060Z,8.20
2023-04-07T01:29:35.189Z,8.10
2023-04-07T01:34:39.838Z,8.00
2023-04-07T01:39:42.251Z,7.90
2023-04-07T01:44:47.074Z,7.80
2023-04-07T01:49:50.093Z,7.80
2023-04-07T01:54:52.386Z,7.90
2023-04-07T01:59:56.499Z,8.00
2023-04-07T02:05:00.791Z,7.80
2023-04-07T02:10:04.872Z,7.70
2023-04-07T02:15:11.948Z,7.80
2023-04-07T02:20:15.222Z,7.90
2023-04-07T02:25:23.326Z,7.90
2023-04-07T02:30:27.502Z,7.80
2023-04-07T02:35:29.581Z,7.80
2023-04-07T02:40:31.402Z,7.80
2023-04-07T02:45:35.057Z,7.80
2023-04-07T02:50:36.895Z,7.70
2023-04-07T02:55:39.104Z,7.80
2023-04-07T03:00:42.849Z,7.70
2023-04-07T03:05:45.145Z,7.70
2023-04-07T03:10:47.752Z,7.60
2023-04-07T03:15:51.469Z,7.60
2023-04-07T03:20:55.507Z,7.60
2023-04-07T03:25:59.642Z,7.60
2023-04-07T03:31:03.809Z,7.60
2023-04-07T03:36:06.482Z,7.50
2023-04-07T03:41:08.673Z,7.50
2023-04-07T03:46:12.424Z,7.50
2023-04-07T03:51:14.772Z,7.60
2023-04-07T03:56:17.353Z,7.50
2023-04-07T04:01:21.250Z,7.50
2023-04-07T04:06:23.364Z,7.60
2023-04-07T04:11:26.408Z,7.70
2023-04-07T04:16:29.952Z,7.80
2023-04-07T04:21:32.561Z,7.80
2023-04-07T04:26:34.763Z,7.70
2023-04-07T04:31:38.569Z,7.70
2023-04-07T04:36:41.787Z,7.70
2023-04-07T04:41:43.914Z,7.60
2023-04-07T04:46:47.778Z,7.60
2023-04-07T04:51:49.875Z,7.50
2023-04-07T04:56:52.369Z,7.40
2023-04-07T05:01:56.305Z,7.40
2023-04-07T05:06:58.513Z,7.40
2023-04-07T05:12:02.015Z,7.50
2023-04-07T05:17:05.644Z,7.50
2023-04-07T05:22:07.688Z,7.50
2023-04-07T05:27:10.002Z,7.60
2023-04-07T05:32:13.536Z,7.60
2023-04-07T05:37:15.801Z,7.60
2023-04-07T05:42:18.162Z,7.70
2023-04-07T05:47:21.676Z,7.80
2023-04-07T05:52:24.244Z,7.90
2023-04-07T05:57:28.277Z,8.00
2023-04-07T06:02:32.007Z,8.20
2023-04-07T06:07:34.462Z,8.40
2023-04-07T06:12:36.732Z,8.70
2023-04-07T06:17:40.597Z,8.90
2023-04-07T06:22:42.916Z,8.90
2023-04-07T06:27:45.562Z,8.90
2023-04-07T06:32:49.291Z,8.90
2023-04-07T06:37:52.087Z,8.90
2023-04-07T06:42:54.987Z,8.90
2023-04-07T06:47:58.711Z,9.10
2023-04-07T06:53:01.146Z,9.00
2023-04-07T06:58:03.184Z,8.80
2023-04-07T07:03:06.901Z,8.70
2023-04-07T07:08:09.012Z,8.70
2023-04-07T07:13:11.421Z,8.80
2023-04-07T07:18:15.107Z,8.70
2023-04-07T07:23:17.104Z,8.70
2023-04-07T07:28:20.123Z,8.70
2023-04-07T07:33:24.084Z,8.70
2023-04-07T07:38:27.826Z,9.00
2023-04-07T07:43:30.221Z,9.10
2023-04-07T07:48:34.019Z,9.20
2023-04-07T07:53:36.270Z,9.60
2023-04-07T07:58:38.609Z,9.90
2023-04-07T08:03:42.264Z,10.40
2023-04-07T08:08:44.520Z,10.30
2023-04-07T08:13:47.213Z,10.60
2023-04-07T08:18:51.045Z,11.10
2023-04-07T08:23:54.531Z,11.50
2023-04-07T08:28:57.366Z,11.90
2023-04-07T08:34:00.917Z,12.80
2023-04-07T08:39:05.842Z,13.70
2023-04-07T08:44:09.573Z,13.70
2023-04-07T08:49:14.428Z,13.70
2023-04-07T08:54:19.237Z,13.50
2023-04-07T08:59:26.989Z,13.60
2023-04-07T09:04:30.977Z,13.30
2023-04-07T09:09:33.195Z,13.50
2023-04-07T09:14:35.455Z,14.10
2023-04-07T09:19:39.253Z,14.20
2023-04-07T09:24:42.449Z,14.00
2023-04-07T09:29:46.429Z,14.40
2023-04-07T09:35:00.562Z,14.50
2023-04-07T09:40:03.756Z,14.50
2023-04-07T09:45:06.617Z,14.60
2023-04-07T09:50:11.300Z,14.50
2023-04-07T09:55:13.884Z,14.50
2023-04-07T10:00:17.119Z,14.80
2023-04-07T10:05:23.341Z,15.20
2023-04-07T10:10:26.868Z,15.90
2023-04-07T10:15:29.266Z,17.70
2023-04-07T10:20:33.624Z,19.70
2023-04-07T10:25:37.329Z,21.30
2023-04-07T10:30:40.034Z,21.80
2023-04-07T10:36:07.943Z,20.90
2023-04-07T10:41:36.962Z,20.60
2023-04-07T10:47:04.540Z,20.50
2023-04-07T10:52:26.573Z,20.60
2023-04-07T10:57:28.576Z,18.90
2023-04-07T11:02:35.493Z,18.60
2023-04-07T11:07:51.487Z,18.70
2023-04-07T11:13:05.577Z,18.70
2023-04-07T11:18:16.298Z,18.70
2023-04-07T11:23:21.241Z,17.70
2023-04-07T11:28:23.449Z,17.80
2023-04-07T11:33:30.407Z,18.60
2023-04-07T11:38:38.751Z,18.10
2023-04-07T11:43:42.563Z,19.50
2023-04-07T11:48:45.868Z,19.30
2023-04-07T11:53:55.582Z,19.80
2023-04-07T11:58:58.361Z,19.70
2023-04-07T12:04:03.051Z,20.40
2023-04-07T12:09:07.545Z,20.60
2023-04-07T12:14:10.294Z,20.30
2023-04-07T12:19:13.080Z,21.20
2023-04-07T12:24:17.245Z,21.50
2023-04-07T12:29:20.430Z,22.60
2023-04-07T12:34:23.108Z,22.40
2023-04-07T12:39:26.601Z,22.80
2023-04-07T12:44:28.965Z,22.30
2023-04-07T12:49:31.385Z,22.00
2023-04-07T12:54:35.702Z,20.40
2023-04-07T12:59:38.256Z,19.20
2023-04-07T13:04:43.711Z,18.90
2023-04-07T13:09:47.240Z,19.80
2023-04-07T13:14:59.107Z,20.50
2023-04-07T13:20:02.118Z,22.20
2023-04-07T13:25:06.723Z,22.60
2023-04-07T13:30:10.228Z,21.70
2023-04-07T13:35:12.487Z,22.70
2023-04-07T13:40:16.592Z,21.70
2023-04-07T13:45:18.620Z,20.50
2023-04-07T13:50:20.425Z,19.20
2023-04-07T13:55:23.706Z,18.10
2023-04-07T14:00:26.362Z,17.30
2023-04-07T14:05:28.764Z,17.20
2023-04-07T14:10:33.636Z,16.60
2023-04-07T14:15:35.746Z,15.70
2023-04-07T14:20:38.372Z,15.60
2023-04-07T14:25:42.197Z,14.40
2023-04-07T14:30:44.050Z,12.80
2023-04-07T14:35:46.626Z,11.90
2023-04-07T14:40:50.438Z,11.90
2023-04-07T14:45:52.883Z,12.10
2023-04-07T14:51:08.291Z,11.80
2023-04-07T14:56:13.401Z,11.70
2023-04-07T15:01:15.553Z,11.50
2023-04-07T15:06:17.648Z,11.60
2023-04-07T15:11:21.797Z,11.20
2023-04-07T15:16:24.220Z,10.60
2023-04-07T15:21:27.054Z,10.00
2023-04-07T15:26:30.572Z,9.50
2023-04-07T15:31:32.715Z,9.40
2023-04-07T15:36:35.035Z,9.40
2023-04-07T15:41:39.391Z,9.40
2023-04-07T15:46:41.675Z,9.30
2023-04-07T15:51:43.929Z,9.30
2023-04-07T15:56:47.747Z,9.20
2023-04-07T16:01:50.080Z,9.40
2023-04-07T16:06:52.521Z,9.50
2023-04-07T16:11:56.345Z,9.40
2023-04-07T16:16:59.428Z,9.30
2023-04-07T16:22:01.785Z,9.40
2023-04-07T16:27:05.506Z,9.40
2023-04-07T16:32:08.136Z,9.40
2023-04-07T16:37:10.246Z,9.40
2023-04-07T16:42:14.073Z,9.50
2023-04-07T16:47:16.318Z,9.70
2023-04-07T16:52:20.579Z,10.00
2023-04-07T16:57:24.550Z,10.20
2023-04-07T17:02:27.973Z,10.10
2023-04-07T17:07:30.404Z,10.30
2023-04-07T17:12:33.894Z,10.30
2023-04-07T17:17:37.111Z,9.90
2023-04-07T17:22:39.594Z,9.70
2023-04-07T17:27:43.297Z,9.50
2023-04-07T17:32:45.804Z,9.30
2023-04-07T17:37:48.665Z,9.20
2023-04-07T17:42:52.215Z,9.10
2023-04-07T17:47:55.160Z,9.00
2023-04-07T17:52:59.538Z,9.00
2023-04-07T17:58:03.526Z,9.10
2023-04-07T18:03:06.457Z,8.90
2023-04-07T18:08:09.180Z,8.80
2023-04-07T18:13:13.027Z,8.70
2023-04-07T18:18:15.445Z,8.70
2023-04-07T18:23:19.969Z,8.60
2023-04-07T18:28:32.542Z,8.60
2023-04-07T18:33:35.522Z,8.50
2023-04-07T18:38:38.556Z,8.50
2023-04-07T18:43:42.430Z,8.50
2023-04-07T18:48:44.897Z,8.50
2023-04-07T18:53:47.687Z,8.40
2023-04-07T18:58:52.203Z,8.30
2023-04-07T19:03:54.711Z,8.30
2023-04-07T19:08:57.328Z,8.30
2023-04-07T19:14:01.356Z,8.20
2023-04-07T19:19:05.016Z,8.10
2023-04-07T19:24:07.281Z,8.10
2023-04-07T19:29:12.657Z,8.10
2023-04-07T19:34:14.846Z,8.40
2023-04-07T19:39:17.594Z,8.50
2023-04-07T19:44:55.032Z,8.30
2023-04-07T19:50:36.603Z,8.20
2023-04-07T19:56:06.121Z,8.10
2023-04-07T20:01:17.405Z,8.10
2023-04-07T20:06:21.180Z,8.10
2023-04-07T20:11:24.038Z,8.20
2023-04-07T20:16:27.958Z,8.10
2023-04-07T20:21:30.638Z,8.10
2023-04-07T20:26:32.966Z,8.10
2023-04-07T20:31:36.824Z,8.10
2023-04-07T20:36:39.170Z,8.10
2023-04-07T20:41:43.191Z,8.10
2023-04-07T20:46:47.601Z,8.10
2023-04-07T20:51:49.907Z,8.00
2023-04-07T20:56:53.000Z,8.00
2023-04-07T21:02:00.084Z,7.90
2023-04-07T21:07:02.396Z,7.80
2023-04-07T21:12:04.647Z,7.80
2023-04-07T21:17:08.405Z,7.80
2023-04-07T21:22:12.962Z,7.90
2023-04-07T21:27:15.178Z,7.80
2023-04-07T21:32:19.171Z,7.70
2023-04-07T21:37:23.217Z,7.70
2023-04-07T21:42:25.529Z,7.60
2023-04-07T21:47:29.863Z,7.60
2023-04-07T21:52:32.387Z,7.50
2023-04-07T21:57:34.460Z,7.50
2023-04-07T22:02:38.538Z,7.40
2023-04-07T22:07:41.022Z,7.40
2023-04-07T22:12:43.239Z,7.40
2023-04-07T22:17:47.237Z,7.30
2023-04-07T22:22:49.726Z,7.30
2023-04-07T22:27:52.601Z,7.20
2023-04-07T22:32:56.355Z,7.10
2023-04-07T22:37:58.925Z,7.00
2023-04-07T22:43:01.530Z,6.90
2023-04-07T22:48:05.327Z,6.90
2023-04-07T22:53:08.045Z,7.10
2023-04-07T22:58:10.063Z,7.10
2023-04-07T23:03:14.989Z,7.10
2023-04-07T23:08:17.030Z,7.10
2023-04-07T23:13:19.460Z,7.10
2023-04-07T23:18:23.485Z,7.10
2023-04-07T23:23:26.013Z,6.90
2023-04-07T23:28:28.238Z,7.00
2023-04-07T23:33:32.960Z,6.90
2023-04-07T23:38:36.459Z,7.00
2023-04-07T23:43:38.820Z,7.00
2023-04-07T23:48:43.252Z,6.90
2023-04-07T23:53:45.931Z,6.90
2023-04-07T23:58:48.936Z,7.00
